createdAt,value
2018-04-07T00:00:26.592Z,90.23
2018-04-07T00:01:26.564Z,89.32
2018-04-07T00:02:26.486Z,89.47
2018-04-07T00:03:26.471Z,89.56
2018-04-07T00:04:26.399Z,89.37
2018-04-07T00:05:26.394Z,89.27
2018-04-07T00:06:26.340Z,89.65
2018-04-07T00:07:26.295Z,89.17
2018-04-07T00:08:26.238Z,89.17
2018-04-07T00:09:26.183Z,88.98
2018-04-07T00:10:26.134Z,88.79
2018-04-07T00:11:26.120Z,89.17
2018-04-07T00:12:26.052Z,89.23
2018-04-07T00:13:26.010Z,90.00
2018-04-07T00:14:25.999Z,89.90
2018-04-07T00:15:25.920Z,90.14
2018-04-07T00:16:25.902Z,89.81
2018-04-07T00:17:25.870Z,90.00
2018-04-07T00:18:25.805Z,89.71
2018-04-07T00:19:25.745Z,90.00
2018-04-07T00:20:25.722Z,89.71
2018-04-07T00:21:25.677Z,89.42
2018-04-07T00:22:25.640Z,89.17
2018-04-07T00:23:25.598Z,89.27
2018-04-07T00:24:25.541Z,89.56
2018-04-07T00:25:25.515Z,88.89
2018-04-07T00:26:25.435Z,89.37
2018-04-07T00:27:25.435Z,88.98
2018-04-07T00:28:25.383Z,88.89
2018-04-07T00:29:25.307Z,88.79
2018-04-07T00:30:25.288Z,88.89
2018-04-07T00:31:25.240Z,88.79
2018-04-07T00:32:25.188Z,88.59
2018-04-07T00:33:25.146Z,89.07
2018-04-07T00:34:25.090Z,89.07
2018-04-07T00:35:25.073Z,88.59
2018-04-07T00:36:25.039Z,88.50
2018-04-07T00:37:24.984Z,88.59
2018-04-07T00:38:24.929Z,89.07
2018-04-07T00:39:24.915Z,88.79
2018-04-07T00:40:24.871Z,88.17
2018-04-07T00:41:24.796Z,88.36
2018-04-07T00:42:24.770Z,88.55
2018-04-07T00:43:24.696Z,89.13
2018-04-07T00:44:24.672Z,89.32
2018-04-07T00:45:24.636Z,89.23
2018-04-07T00:46:24.577Z,89.32
2018-04-07T00:47:24.535Z,89.23
2018-04-07T00:48:24.524Z,89.23
2018-04-07T00:49:24.459Z,89.81
2018-04-07T00:50:24.433Z,90.00
2018-04-07T00:51:24.393Z,89.51
2018-04-07T00:52:24.354Z,89.81
2018-04-07T00:53:24.284Z,89.71
2018-04-07T00:54:24.240Z,90.67
2018-04-07T00:55:24.171Z,90.38
2018-04-07T00:56:24.127Z,90.09
2018-04-07T00:57:24.092Z,91.06
2018-04-07T00:58:24.083Z,91.35
2018-04-07T00:59:24.003Z,90.48
2018-04-07T01:00:23.980Z,90.96
2018-04-07T01:01:23.926Z,90.58
2018-04-07T01:02:23.877Z,90.48
2018-04-07T01:03:23.830Z,90.96
2018-04-07T01:04:23.779Z,90.19
2018-04-07T01:05:23.774Z,90.05
2018-04-07T01:06:23.689Z,89.32
2018-04-07T01:07:23.645Z,90.00
2018-04-07T01:08:23.627Z,89.81
2018-04-07T01:09:23.586Z,89.90
2018-04-07T01:10:23.535Z,90.09
2018-04-07T01:11:23.471Z,90.29
2018-04-07T01:12:23.440Z,89.13
2018-04-07T01:13:23.408Z,89.81
2018-04-07T01:14:23.372Z,89.27
2018-04-07T01:15:23.302Z,89.13
2018-04-07T01:16:23.298Z,89.13
2018-04-07T01:17:23.218Z,88.98
2018-04-07T01:18:23.185Z,89.03
2018-04-07T01:19:23.148Z,89.65
2018-04-07T01:20:23.090Z,90.09
2018-04-07T01:21:23.060Z,89.51
2018-04-07T01:22:23.012Z,90.09
2018-04-07T01:23:22.983Z,89.32
2018-04-07T01:24:22.914Z,89.81
2018-04-07T01:25:22.902Z,89.51
2018-04-07T01:26:22.827Z,90.72
2018-04-07T01:27:22.808Z,90.72
2018-04-07T01:28:22.778Z,90.53
2018-04-07T01:29:22.699Z,91.60
2018-04-07T01:30:22.639Z,92.08
2018-04-07T01:31:22.622Z,91.60
2018-04-07T01:32:22.562Z,91.40
2018-04-07T01:33:22.508Z,91.11
2018-04-07T01:34:22.491Z,90.53
2018-04-07T01:35:22.446Z,90.82
2018-04-07T01:36:22.401Z,91.11
2018-04-07T01:37:22.346Z,91.11
2018-04-07T01:38:22.317Z,90.53
2018-04-07T01:39:22.258Z,90.53
2018-04-07T01:40:22.222Z,90.67
2018-04-07T01:41:22.185Z,90.92
2018-04-07T01:42:22.113Z,90.77
2018-04-07T01:43:22.125Z,90.48
2018-04-07T01:44:22.032Z,90.67
2018-04-07T01:45:22.010Z,90.19
2018-04-07T01:46:21.995Z,89.90
2018-04-07T01:47:21.918Z,90.72
2018-04-07T01:48:21.850Z,90.72
2018-04-07T01:49:21.834Z,90.82
2018-04-07T01:50:21.776Z,90.77
2018-04-07T01:51:21.727Z,90.58
2018-04-07T01:52:21.674Z,90.77
2018-04-07T01:53:21.642Z,90.67
2018-04-07T01:54:21.587Z,90.53
2018-04-07T01:55:21.558Z,91.02
2018-04-07T01:56:21.527Z,91.69
2018-04-07T01:57:21.480Z,91.78
2018-04-07T01:58:21.418Z,91.50
2018-04-07T01:59:21.417Z,91.60
2018-04-07T02:00:21.322Z,92.17
2018-04-07T02:01:21.319Z,92.27
2018-04-07T02:02:21.250Z,91.98
2018-04-07T02:03:21.192Z,91.20
2018-04-07T02:04:21.187Z,91.30
2018-04-07T02:05:21.125Z,91.30
2018-04-07T02:06:21.075Z,91.40
2018-04-07T02:07:21.034Z,91.30
2018-04-07T02:08:20.995Z,91.50
2018-04-07T02:09:20.929Z,92.36
2018-04-07T02:10:20.886Z,92.17
2018-04-07T02:11:20.878Z,92.08
2018-04-07T02:12:20.823Z,91.88
2018-04-07T02:13:20.773Z,92.08
2018-04-07T02:14:20.711Z,92.36
2018-04-07T02:15:20.690Z,92.08
2018-04-07T02:16:20.643Z,92.17
2018-04-07T02:17:20.617Z,91.98
2018-04-07T02:18:20.562Z,91.98
2018-04-07T02:19:20.502Z,91.50
2018-04-07T02:20:20.454Z,91.78
2018-04-07T02:21:20.408Z,92.27
2018-04-07T02:22:20.370Z,91.69
2018-04-07T02:23:20.348Z,91.88
2018-04-07T02:24:20.293Z,91.88
2018-04-07T02:25:20.241Z,92.17
2018-04-07T02:26:20.180Z,91.88
2018-04-07T02:27:20.150Z,91.93
2018-04-07T02:28:20.121Z,91.93
2018-04-07T02:29:20.073Z,92.27
2018-04-07T02:30:20.052Z,92.17
2018-04-07T02:31:19.991Z,91.44
2018-04-07T02:32:19.961Z,91.54
2018-04-07T02:33:19.893Z,91.60
2018-04-07T02:34:19.848Z,91.64
2018-04-07T02:35:19.811Z,91.54
2018-04-07T02:36:19.758Z,91.06
2018-04-07T02:37:19.726Z,91.06
2018-04-07T02:38:19.697Z,91.16
2018-04-07T02:39:19.648Z,90.77
2018-04-07T02:40:19.584Z,90.87
2018-04-07T02:41:19.531Z,91.30
2018-04-07T02:42:19.511Z,91.20
2018-04-07T02:43:19.453Z,92.27
2018-04-07T02:44:19.438Z,91.98
2018-04-07T02:45:19.356Z,91.88
2018-04-07T02:46:19.319Z,92.08
2018-04-07T02:47:19.279Z,91.93
2018-04-07T02:48:19.251Z,92.22
2018-04-07T02:49:19.207Z,92.22
2018-04-07T02:50:19.208Z,92.12
2018-04-07T02:51:19.092Z,91.60
2018-04-07T02:52:19.059Z,92.17
2018-04-07T02:53:19.027Z,92.17
2018-04-07T02:54:18.965Z,91.98
2018-04-07T02:55:18.926Z,92.17
2018-04-07T02:56:18.895Z,92.17
2018-04-07T02:57:18.840Z,92.36
2018-04-07T02:58:18.786Z,92.17
2018-04-07T02:59:18.765Z,92.08
2018-04-07T03:00:18.708Z,91.93
2018-04-07T03:01:18.699Z,91.74
2018-04-07T03:02:18.651Z,92.12
2018-04-07T03:03:18.566Z,92.22
2018-04-07T03:04:18.532Z,92.02
2018-04-07T03:05:18.492Z,91.83
2018-04-07T03:06:18.431Z,92.12
2018-04-07T03:07:18.402Z,92.02
2018-04-07T03:08:18.359Z,92.08
2018-04-07T03:09:18.329Z,92.12
2018-04-07T03:10:18.278Z,92.12
2018-04-07T03:11:18.234Z,92.12
2018-04-07T03:12:18.198Z,92.12
2018-04-07T03:13:18.172Z,92.02
2018-04-07T03:14:18.097Z,92.02
2018-04-07T03:15:18.047Z,92.02
2018-04-07T03:16:18.011Z,92.02
2018-04-07T03:17:17.981Z,92.22
2018-04-07T03:18:17.922Z,92.12
2018-04-07T03:19:17.885Z,91.93
2018-04-07T03:20:17.850Z,91.88
2018-04-07T03:21:17.827Z,91.88
2018-04-07T03:22:17.740Z,92.02
2018-04-07T03:23:17.718Z,92.02
2018-04-07T03:24:17.683Z,92.02
2018-04-07T03:25:17.641Z,92.02
2018-04-07T03:26:17.600Z,92.08
2018-04-07T03:27:17.514Z,92.46
2018-04-07T03:28:17.482Z,91.88
2018-04-07T03:29:17.452Z,92.32
2018-04-07T03:30:17.392Z,92.50
2018-04-07T03:31:17.388Z,92.22
2018-04-07T03:32:17.301Z,91.78
2018-04-07T03:33:17.270Z,92.41
2018-04-07T03:34:17.234Z,91.74
2018-04-07T03:35:17.186Z,92.41
2018-04-07T03:36:17.134Z,92.27
2018-04-07T03:37:17.104Z,92.27
2018-04-07T03:38:17.041Z,92.12
2018-04-07T03:39:17.017Z,92.12
2018-04-07T03:40:16.953Z,92.08
2018-04-07T03:41:16.903Z,92.08
2018-04-07T03:42:16.866Z,92.32
2018-04-07T03:43:16.829Z,92.17
2018-04-07T03:44:16.784Z,91.60
2018-04-07T03:45:16.723Z,92.41
2018-04-07T03:46:16.699Z,92.56
2018-04-07T03:47:16.677Z,92.02
2018-04-07T03:48:16.619Z,91.98
2018-04-07T03:49:16.566Z,92.12
2018-04-07T03:50:16.516Z,92.46
2018-04-07T03:51:16.478Z,92.17
2018-04-07T03:52:16.453Z,92.08
2018-04-07T03:53:16.379Z,92.22
2018-04-07T03:54:16.376Z,92.17
2018-04-07T03:55:16.320Z,92.22
2018-04-07T03:56:16.255Z,92.27
2018-04-07T03:57:16.230Z,92.12
2018-04-07T03:58:16.180Z,92.12
2018-04-07T03:59:16.113Z,92.02
2018-04-07T04:00:16.098Z,92.02
2018-04-07T04:01:16.074Z,92.02
2018-04-07T04:02:16.000Z,92.12
2018-04-07T04:03:15.956Z,91.83
2018-04-07T04:04:15.894Z,92.12
2018-04-07T04:05:15.879Z,92.12
2018-04-07T04:06:15.838Z,92.22
2018-04-07T04:07:15.791Z,91.93
2018-04-07T04:08:15.723Z,91.93
2018-04-07T04:09:15.727Z,92.12
2018-04-07T04:10:15.662Z,91.44
2018-04-07T04:11:15.620Z,92.12
2018-04-07T04:12:15.605Z,91.88
2018-04-07T04:13:15.532Z,92.02
2018-04-07T04:14:15.507Z,92.80
2018-04-07T04:15:15.430Z,91.83
2018-04-07T04:16:15.387Z,92.56
2018-04-07T04:17:15.367Z,92.65
2018-04-07T04:18:15.315Z,93.13
2018-04-07T04:19:15.251Z,93.04
2018-04-07T04:20:15.230Z,92.85
2018-04-07T04:21:15.171Z,93.23
2018-04-07T04:22:15.151Z,92.94
2018-04-07T04:23:15.079Z,92.65
2018-04-07T04:24:15.055Z,92.65
2018-04-07T04:25:14.989Z,92.85
2018-04-07T04:26:14.961Z,92.17
2018-04-07T04:27:14.920Z,92.94
2018-04-07T04:28:14.864Z,92.27
2018-04-07T04:29:14.825Z,92.27
2018-04-07T04:30:14.762Z,92.56
2018-04-07T04:31:14.744Z,92.17
2018-04-07T04:32:14.715Z,92.46
2018-04-07T04:33:14.657Z,92.46
2018-04-07T04:34:14.584Z,93.13
2018-04-07T04:35:14.581Z,93.33
2018-04-07T04:36:14.552Z,93.13
2018-04-07T04:37:14.456Z,92.65
2018-04-07T04:38:14.426Z,93.23
2018-04-07T04:39:14.396Z,92.27
2018-04-07T04:40:14.338Z,92.56
2018-04-07T04:41:14.305Z,92.56
2018-04-07T04:42:14.272Z,92.56
2018-04-07T04:43:14.199Z,92.46
2018-04-07T04:44:14.170Z,92.75
2018-04-07T04:45:14.149Z,93.23
2018-04-07T04:46:14.085Z,93.28
2018-04-07T04:47:14.019Z,92.46
2018-04-07T04:48:14.016Z,92.94
2018-04-07T04:49:13.952Z,93.04
2018-04-07T04:50:13.889Z,93.13
2018-04-07T04:51:13.843Z,93.23
2018-04-07T04:52:13.800Z,93.33
2018-04-07T04:53:13.769Z,93.43
2018-04-07T04:54:13.734Z,93.52
2018-04-07T04:55:13.696Z,93.33
2018-04-07T04:56:13.638Z,93.91
2018-04-07T04:57:13.608Z,94.00
2018-04-07T04:58:13.534Z,93.81
2018-04-07T04:59:13.508Z,93.13
2018-04-07T05:00:13.503Z,93.66
2018-04-07T05:01:13.406Z,94.29
2018-04-07T05:02:13.376Z,94.39
2018-04-07T05:03:13.338Z,94.29
2018-04-07T05:04:13.314Z,93.71
2018-04-07T05:05:13.255Z,93.81
2018-04-07T05:06:13.200Z,93.62
2018-04-07T05:07:13.185Z,93.71
2018-04-07T05:08:13.112Z,93.91
2018-04-07T05:09:13.094Z,94.39
2018-04-07T05:10:13.009Z,94.29
2018-04-07T05:11:12.968Z,94.00
2018-04-07T05:12:12.936Z,93.81
2018-04-07T05:13:12.907Z,94.20
2018-04-07T05:14:12.862Z,94.39
2018-04-07T05:15:12.826Z,93.91
2018-04-07T05:16:12.773Z,93.86
2018-04-07T05:17:12.733Z,93.81
2018-04-07T05:18:12.687Z,94.00
2018-04-07T05:19:12.642Z,93.81
2018-04-07T05:20:12.598Z,93.43
2018-04-07T05:21:12.555Z,93.43
2018-04-07T05:22:12.509Z,93.23
2018-04-07T05:23:12.454Z,93.81
2018-04-07T05:24:12.412Z,93.66
2018-04-07T05:25:12.380Z,94.00
2018-04-07T05:26:12.318Z,93.86
2018-04-07T05:27:12.292Z,93.66
2018-04-07T05:28:12.228Z,94.15
2018-04-07T05:29:12.214Z,94.54
2018-04-07T05:30:12.147Z,94.92
2018-04-07T05:31:12.117Z,94.73
2018-04-07T05:32:12.057Z,93.96
2018-04-07T05:33:12.018Z,94.44
2018-04-07T05:34:11.963Z,94.24
2018-04-07T05:35:11.931Z,95.11
2018-04-07T05:36:11.883Z,94.24
2018-04-07T05:37:11.832Z,94.15
2018-04-07T05:38:11.815Z,94.44
2018-04-07T05:39:11.753Z,94.92
2018-04-07T05:40:11.734Z,94.82
2018-04-07T05:41:11.708Z,94.06
2018-04-07T05:42:11.605Z,94.24
2018-04-07T05:43:11.590Z,94.29
2018-04-07T05:44:11.547Z,94.29
2018-04-07T05:45:11.480Z,94.10
2018-04-07T05:46:11.439Z,94.20
2018-04-07T05:47:11.387Z,93.76
2018-04-07T05:48:11.349Z,93.76
2018-04-07T05:49:11.311Z,94.15
2018-04-07T05:50:11.300Z,94.06
2018-04-07T05:51:11.224Z,94.24
2018-04-07T05:52:11.175Z,94.73
2018-04-07T05:53:11.142Z,94.24
2018-04-07T05:54:11.078Z,94.24
2018-04-07T05:55:11.045Z,93.86
2018-04-07T05:56:10.997Z,94.29
2018-04-07T05:57:10.948Z,94.00
2018-04-07T05:58:10.910Z,94.00
2018-04-07T05:59:10.881Z,94.06
2018-04-07T06:00:10.828Z,94.15
2018-04-07T06:01:10.777Z,94.06
2018-04-07T06:02:10.779Z,93.96
2018-04-07T06:03:10.683Z,93.76
2018-04-07T06:04:10.640Z,93.76
2018-04-07T06:05:10.618Z,94.15
2018-04-07T06:06:10.566Z,94.24
2018-04-07T06:07:10.547Z,94.82
2018-04-07T06:08:10.503Z,94.63
2018-04-07T06:09:10.448Z,94.82
2018-04-07T06:10:10.385Z,94.92
2018-04-07T06:11:10.329Z,94.82
2018-04-07T06:12:10.298Z,94.15
2018-04-07T06:13:10.279Z,94.15
2018-04-07T06:14:10.216Z,94.24
2018-04-07T06:15:10.157Z,94.24
2018-04-07T06:16:10.149Z,94.44
2018-04-07T06:17:10.075Z,94.82
2018-04-07T06:18:10.049Z,95.02
2018-04-07T06:19:10.032Z,94.92
2018-04-07T06:20:09.931Z,94.73
2018-04-07T06:21:09.934Z,94.73
2018-04-07T06:22:09.862Z,94.73
2018-04-07T06:23:09.820Z,94.82
2018-04-07T06:24:09.776Z,94.92
2018-04-07T06:25:09.717Z,94.92
2018-04-07T06:26:09.715Z,94.73
2018-04-07T06:27:09.657Z,94.73
2018-04-07T06:28:09.598Z,94.73
2018-04-07T06:29:09.567Z,94.24
2018-04-07T06:30:09.504Z,94.92
2018-04-07T06:31:09.462Z,94.63
2018-04-07T06:32:09.435Z,94.06
2018-04-07T06:33:09.392Z,94.54
2018-04-07T06:34:09.377Z,95.02
2018-04-07T06:35:09.285Z,94.92
2018-04-07T06:36:09.254Z,94.82
2018-04-07T06:37:09.231Z,94.73
2018-04-07T06:38:09.159Z,94.92
2018-04-07T06:39:09.117Z,94.73
2018-04-07T06:40:09.069Z,94.82
2018-04-07T06:41:09.038Z,94.73
2018-04-07T06:42:08.982Z,94.54
2018-04-07T06:43:08.950Z,94.63
2018-04-07T06:44:08.908Z,94.73
2018-04-07T06:45:08.840Z,94.63
2018-04-07T06:46:08.808Z,94.92
2018-04-07T06:47:08.774Z,94.82
2018-04-07T06:48:08.746Z,94.73
2018-04-07T06:49:08.689Z,94.15
2018-04-07T06:50:08.636Z,94.92
2018-04-07T06:51:08.598Z,94.73
2018-04-07T06:52:08.551Z,94.63
2018-04-07T06:53:08.504Z,94.92
2018-04-07T06:54:08.462Z,94.92
2018-04-07T06:55:08.412Z,95.31
2018-04-07T06:56:08.352Z,95.21
2018-04-07T06:57:08.336Z,94.82
2018-04-07T06:58:08.264Z,94.82
2018-04-07T06:59:08.226Z,94.73
2018-04-07T07:00:08.190Z,94.73
2018-04-07T07:01:08.153Z,94.73
2018-04-07T07:02:08.096Z,94.73
2018-04-07T07:03:08.049Z,95.11
2018-04-07T07:04:08.022Z,94.92
2018-04-07T07:05:07.982Z,95.02
2018-04-07T07:06:07.925Z,95.21
2018-04-07T07:07:07.893Z,94.82
2018-04-07T07:08:07.852Z,94.82
2018-04-07T07:09:07.812Z,95.31
2018-04-07T07:10:07.761Z,95.11
2018-04-07T07:11:07.698Z,94.82
2018-04-07T07:12:07.688Z,94.73
2018-04-07T07:13:07.619Z,94.06
2018-04-07T07:14:07.560Z,94.73
2018-04-07T07:15:07.540Z,94.54
2018-04-07T07:16:07.478Z,94.92
2018-04-07T07:17:07.447Z,94.73
2018-04-07T07:18:07.378Z,94.92
2018-04-07T07:19:07.355Z,94.73
2018-04-07T07:20:07.291Z,94.44
2018-04-07T07:21:07.308Z,94.54
2018-04-07T07:22:07.253Z,94.82
2018-04-07T07:23:07.189Z,95.40
2018-04-07T07:24:07.145Z,94.82
2018-04-07T07:25:07.092Z,94.92
2018-04-07T07:26:07.063Z,94.06
2018-04-07T07:27:07.001Z,94.73
2018-04-07T07:28:06.952Z,94.82
2018-04-07T07:29:06.926Z,94.73
2018-04-07T07:30:06.868Z,94.73
2018-04-07T07:31:06.844Z,95.40
2018-04-07T07:32:06.795Z,95.16
2018-04-07T07:33:06.749Z,94.97
2018-04-07T07:34:06.679Z,96.03
2018-04-07T07:35:06.640Z,96.12
2018-04-07T07:36:06.592Z,96.61
2018-04-07T07:37:06.573Z,96.32
2018-04-07T07:38:06.516Z,96.12
2018-04-07T07:39:06.485Z,96.12
2018-04-07T07:40:06.428Z,96.32
2018-04-07T07:41:06.385Z,96.22
2018-04-07T07:42:06.374Z,96.22
2018-04-07T07:43:06.282Z,95.84
2018-04-07T07:44:06.271Z,95.55
2018-04-07T07:45:06.208Z,95.36
2018-04-07T07:46:06.164Z,96.03
2018-04-07T07:47:06.112Z,96.22
2018-04-07T07:48:06.077Z,95.94
2018-04-07T07:49:06.043Z,96.22
2018-04-07T07:50:06.013Z,96.32
2018-04-07T07:51:05.935Z,96.03
2018-04-07T07:52:05.910Z,96.32
2018-04-07T07:53:05.840Z,96.22
2018-04-07T07:54:05.819Z,96.42
2018-04-07T07:55:05.787Z,96.51
2018-04-07T07:56:05.728Z,96.12
2018-04-07T07:57:05.666Z,95.45
2018-04-07T07:58:05.636Z,95.64
2018-04-07T07:59:05.604Z,95.55
2018-04-07T08:00:05.554Z,95.64
2018-04-07T08:01:05.530Z,95.36
2018-04-07T08:02:05.443Z,95.94
2018-04-07T08:03:05.414Z,96.42
2018-04-07T08:04:05.387Z,96.32
2018-04-07T08:05:05.332Z,96.22
2018-04-07T08:06:05.266Z,96.12
2018-04-07T08:07:05.242Z,96.22
2018-04-07T08:08:05.178Z,96.89
2018-04-07T08:09:05.147Z,96.12
2018-04-07T08:10:05.101Z,96.32
2018-04-07T08:11:05.044Z,96.32
2018-04-07T08:12:05.015Z,95.74
2018-04-07T08:13:04.967Z,96.12
2018-04-07T08:14:04.919Z,96.12
2018-04-07T08:15:04.871Z,96.80
2018-04-07T08:16:04.837Z,96.66
2018-04-07T08:17:04.791Z,96.80
2018-04-07T08:18:04.742Z,96.66
2018-04-07T08:19:04.968Z,97.19
2018-04-07T08:20:04.662Z,97.33
2018-04-07T08:21:04.603Z,96.94
2018-04-07T08:22:04.578Z,96.94
2018-04-07T08:23:04.532Z,97.33
2018-04-07T08:24:04.508Z,97.09
2018-04-07T08:25:04.469Z,96.70
2018-04-07T08:26:04.426Z,96.42
2018-04-07T08:27:04.348Z,95.89
2018-04-07T08:28:04.333Z,96.56
2018-04-07T08:29:04.270Z,96.46
2018-04-07T08:30:04.243Z,95.98
2018-04-07T08:31:04.190Z,95.98
2018-04-07T08:32:04.194Z,96.94
2018-04-07T08:33:04.103Z,96.85
2018-04-07T08:34:04.046Z,96.66
2018-04-07T08:35:03.982Z,96.94
2018-04-07T08:36:03.979Z,97.04
2018-04-07T08:37:03.915Z,97.33
2018-04-07T08:38:03.846Z,97.42
2018-04-07T08:39:03.806Z,97.04
2018-04-07T08:40:03.768Z,97.42
2018-04-07T08:41:03.717Z,97.24
2018-04-07T08:42:03.698Z,97.24
2018-04-07T08:43:03.641Z,96.94
2018-04-07T08:44:03.625Z,96.94
2018-04-07T08:45:03.558Z,97.33
2018-04-07T08:46:03.501Z,96.75
2018-04-07T08:47:03.489Z,96.89
2018-04-07T08:48:03.437Z,96.27
2018-04-07T08:49:03.383Z,96.17
2018-04-07T08:50:03.340Z,96.37
2018-04-07T08:51:03.323Z,97.04
2018-04-07T08:52:03.242Z,97.14
2018-04-07T08:53:03.226Z,97.24
2018-04-07T08:54:03.166Z,97.24
2018-04-07T08:55:03.105Z,97.24
2018-04-07T08:56:03.063Z,96.85
2018-04-07T08:57:03.023Z,97.33
2018-04-07T08:58:02.963Z,97.14
2018-04-07T08:59:02.918Z,97.62
2018-04-07T09:00:02.888Z,97.52
2018-04-07T09:01:02.870Z,97.91
2018-04-07T09:02:02.811Z,97.91
2018-04-07T09:03:02.762Z,97.81
2018-04-07T09:04:02.736Z,97.81
2018-04-07T09:05:02.694Z,97.62
2018-04-07T09:06:02.615Z,98.00
2018-04-07T09:07:02.586Z,97.81
2018-04-07T09:08:02.544Z,97.62
2018-04-07T09:09:02.501Z,97.24
2018-04-07T09:10:02.461Z,96.94
2018-04-07T09:11:02.425Z,97.52
2018-04-07T09:12:02.356Z,96.85
2018-04-07T09:13:02.325Z,97.04
2018-04-07T09:14:02.295Z,97.04
2018-04-07T09:15:02.228Z,97.81
2018-04-07T09:16:02.215Z,97.04
2018-04-07T09:17:02.145Z,96.85
2018-04-07T09:18:02.083Z,96.56
2018-04-07T09:19:02.052Z,96.75
2018-04-07T09:20:01.994Z,96.85
2018-04-07T09:21:01.949Z,96.94
2018-04-07T09:22:01.926Z,96.94
2018-04-07T09:23:01.861Z,97.42
2018-04-07T09:24:01.817Z,97.72
2018-04-07T09:25:01.764Z,97.52
2018-04-07T09:26:01.740Z,97.62
2018-04-07T09:27:01.699Z,97.62
2018-04-07T09:28:01.672Z,98.00
2018-04-07T09:29:01.603Z,98.29
2018-04-07T09:30:01.543Z,98.00
2018-04-07T09:31:01.510Z,98.29
2018-04-07T09:32:01.493Z,97.81
2018-04-07T09:33:01.426Z,97.24
2018-04-07T09:34:01.379Z,97.04
2018-04-07T09:35:01.333Z,97.42
2018-04-07T09:36:01.283Z,97.52
2018-04-07T09:37:01.240Z,97.72
2018-04-07T09:38:01.212Z,97.33
2018-04-07T09:39:01.165Z,97.52
2018-04-07T09:40:01.148Z,98.58
2018-04-07T09:41:01.063Z,97.81
2018-04-07T09:42:01.084Z,97.91
2018-04-07T09:43:00.978Z,97.62
2018-04-07T09:44:00.949Z,97.72
2018-04-07T09:45:00.918Z,97.62
2018-04-07T09:46:00.862Z,97.24
2018-04-07T09:47:00.830Z,96.94
2018-04-07T09:48:00.768Z,97.14
2018-04-07T09:49:00.711Z,97.04
2018-04-07T09:50:00.668Z,97.42
2018-04-07T09:51:00.635Z,96.85
2018-04-07T09:52:00.588Z,97.42
2018-04-07T09:53:00.539Z,97.72
2018-04-07T09:54:00.511Z,97.62
2018-04-07T09:55:00.494Z,97.62
2018-04-07T09:56:00.395Z,97.24
2018-04-07T09:57:00.379Z,97.42
2018-04-07T09:58:00.334Z,97.42
2018-04-07T09:59:00.289Z,97.33
2018-04-07T10:00:00.260Z,97.33
2018-04-07T10:01:00.227Z,97.19
2018-04-07T10:02:00.132Z,97.57
2018-04-07T10:03:00.131Z,96.89
2018-04-07T10:04:00.078Z,97.52
2018-04-07T10:05:00.001Z,96.99
2018-04-07T10:05:59.984Z,97.57
2018-04-07T10:06:59.924Z,97.19
2018-04-07T10:07:59.870Z,97.38
2018-04-07T10:08:59.841Z,97.28
2018-04-07T10:09:59.806Z,97.57
2018-04-07T10:10:59.777Z,97.76
2018-04-07T10:11:59.733Z,97.96
2018-04-07T10:12:59.682Z,97.57
2018-04-07T10:13:59.635Z,98.44
2018-04-07T10:14:59.614Z,98.24
2018-04-07T10:15:59.520Z,97.96
2018-04-07T10:16:59.490Z,98.15
2018-04-07T10:17:59.447Z,98.34
2018-04-07T10:18:59.402Z,98.15
2018-04-07T10:19:59.345Z,97.76
2018-04-07T10:20:59.311Z,97.86
2018-04-07T10:21:59.284Z,97.91
2018-04-07T10:22:59.212Z,97.52
2018-04-07T10:23:59.171Z,97.24
2018-04-07T10:24:59.169Z,97.42
2018-04-07T10:25:59.110Z,97.33
2018-04-07T10:26:59.075Z,97.24
2018-04-07T10:27:59.022Z,96.85
2018-04-07T10:28:58.987Z,95.36
2018-04-07T10:29:58.936Z,93.91
2018-04-07T10:30:58.904Z,92.22
2018-04-07T10:31:58.846Z,91.59
2018-04-07T10:32:58.819Z,89.95
2018-04-07T10:33:58.779Z,89.17
2018-04-07T10:34:58.748Z,88.35
2018-04-07T10:35:58.693Z,87.38
2018-04-07T10:36:58.667Z,86.27
2018-04-07T10:37:58.619Z,85.05
2018-04-07T10:38:58.580Z,83.89
2018-04-07T10:39:58.553Z,83.41
2018-04-07T10:40:58.531Z,82.39
2018-04-07T10:41:58.502Z,82.20
2018-04-07T10:42:58.454Z,81.37
2018-04-07T10:43:58.445Z,80.69
2018-04-07T10:44:58.386Z,79.95
2018-04-07T10:45:58.341Z,79.47
2018-04-07T10:46:58.321Z,78.64
2018-04-07T10:47:58.290Z,77.47
2018-04-07T10:48:58.246Z,77.67
2018-04-07T10:49:58.203Z,77.37
2018-04-07T10:50:58.190Z,76.89
2018-04-07T10:51:58.164Z,76.89
2018-04-07T10:52:58.123Z,76.74
2018-04-07T10:53:58.084Z,76.15
2018-04-07T10:54:58.062Z,76.25
2018-04-07T10:55:58.025Z,75.48
2018-04-07T10:56:57.999Z,74.90
2018-04-07T10:57:57.966Z,74.64
2018-04-07T10:58:57.951Z,74.02
2018-04-07T10:59:57.970Z,74.41
2018-04-07T11:00:57.846Z,76.02
2018-04-07T11:01:57.829Z,75.54
2018-04-07T11:02:57.781Z,75.57
2018-04-07T11:03:57.775Z,75.54
2018-04-07T11:04:57.724Z,75.73
2018-04-07T11:05:57.681Z,75.73
2018-04-07T11:06:57.666Z,75.73
2018-04-07T11:07:57.615Z,76.02
2018-04-07T11:08:57.579Z,75.92
2018-04-07T11:09:57.513Z,76.02
2018-04-07T11:10:57.504Z,76.41
2018-04-07T11:11:57.439Z,76.21
2018-04-07T11:12:57.414Z,76.12
2018-04-07T11:13:57.388Z,76.51
2018-04-07T11:14:57.333Z,76.66
2018-04-07T11:15:57.306Z,76.70
2018-04-07T11:16:57.247Z,77.67
2018-04-07T11:17:57.230Z,76.70
2018-04-07T11:18:57.214Z,76.70
2018-04-07T11:19:57.157Z,76.70
2018-04-07T11:20:57.089Z,76.95
2018-04-07T11:21:57.057Z,77.63
2018-04-07T11:22:57.022Z,76.56
2018-04-07T11:23:56.997Z,76.66
2018-04-07T11:24:56.970Z,76.76
2018-04-07T11:25:56.917Z,77.14
2018-04-07T11:26:56.872Z,77.53
2018-04-07T11:27:56.836Z,76.76
2018-04-07T11:28:56.790Z,77.44
2018-04-07T11:29:56.813Z,77.53
2018-04-07T11:30:56.689Z,77.34
2018-04-07T11:31:56.650Z,77.82
2018-04-07T11:32:56.628Z,77.40
2018-04-07T11:33:56.595Z,77.59
2018-04-07T11:34:56.548Z,78.11
2018-04-07T11:35:56.497Z,77.82
2018-04-07T11:36:56.447Z,77.73
2018-04-07T11:37:56.417Z,77.63
2018-04-07T11:38:56.364Z,77.53
2018-04-07T11:39:56.338Z,78.02
2018-04-07T11:40:56.322Z,78.31
2018-04-07T11:41:56.293Z,79.52
2018-04-07T11:42:56.229Z,79.47
2018-04-07T11:43:56.185Z,78.36
2018-04-07T11:44:56.126Z,78.66
2018-04-07T11:45:56.117Z,78.46
2018-04-07T11:46:56.062Z,79.52
2018-04-07T11:47:56.002Z,79.24
2018-04-07T11:48:55.982Z,79.24
2018-04-07T11:49:55.920Z,79.33
2018-04-07T11:50:55.923Z,78.56
2018-04-07T11:51:55.838Z,78.85
2018-04-07T11:52:55.791Z,79.39
2018-04-07T11:53:55.773Z,79.24
2018-04-07T11:54:55.712Z,79.29
2018-04-07T11:55:55.680Z,79.97
2018-04-07T11:56:55.624Z,79.62
2018-04-07T11:57:55.637Z,79.04
2018-04-07T11:58:55.581Z,78.75
2018-04-07T11:59:55.541Z,78.17
2018-04-07T12:00:55.475Z,78.17
2018-04-07T12:01:55.424Z,78.27
2018-04-07T12:02:55.385Z,78.08
2018-04-07T12:03:55.335Z,77.50
2018-04-07T12:04:55.320Z,78.08
2018-04-07T12:05:55.291Z,78.66
2018-04-07T12:06:55.237Z,78.56
2018-04-07T12:07:55.181Z,77.59
2018-04-07T12:08:55.150Z,77.01
2018-04-07T12:09:55.125Z,77.30
2018-04-07T12:10:55.051Z,77.78
2018-04-07T12:11:55.004Z,78.17
2018-04-07T12:12:54.983Z,78.56
2018-04-07T12:13:54.946Z,78.27
2018-04-07T12:14:54.897Z,78.56
2018-04-07T12:15:54.850Z,78.75
2018-04-07T12:16:54.823Z,78.79
2018-04-07T12:17:54.771Z,78.56
2018-04-07T12:18:54.767Z,78.52
2018-04-07T12:19:54.700Z,79.49
2018-04-07T12:20:54.625Z,80.16
2018-04-07T12:21:54.607Z,80.40
2018-04-07T12:22:54.561Z,79.62
2018-04-07T12:23:54.520Z,78.85
2018-04-07T12:24:54.478Z,78.42
2018-04-07T12:25:54.457Z,79.43
2018-04-07T12:26:54.421Z,79.43
2018-04-07T12:27:54.345Z,79.43
2018-04-07T12:28:54.317Z,79.04
2018-04-07T12:29:54.296Z,79.52
2018-04-07T12:30:54.232Z,79.24
2018-04-07T12:31:54.180Z,79.04
2018-04-07T12:32:54.138Z,78.94
2018-04-07T12:33:54.140Z,79.52
2018-04-07T12:34:54.080Z,78.94
2018-04-07T12:35:54.014Z,78.36
2018-04-07T12:36:53.980Z,78.46
2018-04-07T12:37:53.944Z,78.46
2018-04-07T12:38:53.921Z,77.98
2018-04-07T12:39:53.886Z,77.78
2018-04-07T12:40:53.812Z,78.56
2018-04-07T12:41:53.792Z,78.56
2018-04-07T12:42:53.747Z,78.27
2018-04-07T12:43:53.682Z,78.50
2018-04-07T12:44:53.648Z,78.41
2018-04-07T12:45:53.622Z,78.46
2018-04-07T12:46:53.576Z,79.37
2018-04-07T12:47:53.528Z,77.73
2018-04-07T12:48:53.505Z,78.11
2018-04-07T12:49:53.440Z,78.59
2018-04-07T12:50:53.412Z,78.50
2018-04-07T12:51:53.394Z,77.73